sensor_id;sensor_type;location;lat;lon;timestamp;P1;durP1;ratioP1;P2;durP2;ratioP2
76336;SDS011;65157;50.082;18.178;2023-01-10T00:01:45;7.10;;;4.40;;
76336;SDS011;65157;50.082;18.178;2023-01-10T00:04:12;9.00;;;5.10;;
76336;SDS011;65157;50.082;18.178;2023-01-10T00:06:38;7.70;;;4.90;;
76336;SDS011;65157;50.082;18.178;2023-01-10T00:09:05;11.80;;;5.10;;
76336;SDS011;65157;50.082;18.178;2023-01-10T00:11:31;9.30;;;5.20;;
76336;SDS011;65157;50.082;18.178;2023-01-10T00:14:17;10.10;;;6.30;;
76336;SDS011;65157;50.082;18.178;2023-01-10T00:16:43;9.70;;;5.90;;
76336;SDS011;65157;50.082;18.178;2023-01-10T00:19:10;10.00;;;5.60;;
76336;SDS011;65157;50.082;18.178;2023-01-10T00:21:37;8.40;;;5.40;;
76336;SDS011;65157;50.082;18.178;2023-01-10T00:24:05;9.80;;;6.30;;
76336;SDS011;65157;50.082;18.178;2023-01-10T00:26:44;9.80;;;5.20;;
76336;SDS011;65157;50.082;18.178;2023-01-10T00:29:19;13.40;;;6.10;;
76336;SDS011;65157;50.082;18.178;2023-01-10T00:31:48;9.10;;;5.60;;
76336;SDS011;65157;50.082;18.178;2023-01-10T00:34:15;10.80;;;6.50;;
76336;SDS011;65157;50.082;18.178;2023-01-10T00:36:42;10.90;;;6.20;;
76336;SDS011;65157;50.082;18.178;2023-01-10T00:39:10;10.20;;;5.70;;
76336;SDS011;65157;50.082;18.178;2023-01-10T00:41:37;10.70;;;6.00;;
76336;SDS011;65157;50.082;18.178;2023-01-10T00:44:23;14.00;;;6.60;;
76336;SDS011;65157;50.082;18.178;2023-01-10T00:46:51;12.40;;;6.90;;
76336;SDS011;65157;50.082;18.178;2023-01-10T00:49:18;15.00;;;6.80;;
76336;SDS011;65157;50.082;18.178;2023-01-10T00:51:45;11.40;;;6.90;;
76336;SDS011;65157;50.082;18.178;2023-01-10T00:54:12;13.10;;;6.90;;
76336;SDS011;65157;50.082;18.178;2023-01-10T00:56:39;11.40;;;6.50;;
76336;SDS011;65157;50.082;18.178;2023-01-10T00:59:06;12.80;;;8.00;;
76336;SDS011;65157;50.082;18.178;2023-01-10T01:01:33;12.80;;;6.50;;
76336;SDS011;65157;50.082;18.178;2023-01-10T01:04:00;11.50;;;7.10;;
76336;SDS011;65157;50.082;18.178;2023-01-10T01:06:27;13.50;;;6.70;;
76336;SDS011;65157;50.082;18.178;2023-01-10T01:08:53;12.50;;;7.30;;
76336;SDS011;65157;50.082;18.178;2023-01-10T01:11:20;12.90;;;6.50;;
76336;SDS011;65157;50.082;18.178;2023-01-10T01:13:46;12.60;;;6.70;;
76336;SDS011;65157;50.082;18.178;2023-01-10T01:16:13;10.80;;;6.30;;
76336;SDS011;65157;50.082;18.178;2023-01-10T01:18:40;11.70;;;6.40;;
76336;SDS011;65157;50.082;18.178;2023-01-10T01:21:07;13.80;;;8.00;;
76336;SDS011;65157;50.082;18.178;2023-01-10T01:23:34;13.40;;;7.10;;
76336;SDS011;65157;50.082;18.178;2023-01-10T01:26:01;17.20;;;7.70;;
76336;SDS011;65157;50.082;18.178;2023-01-10T01:28:27;15.20;;;7.40;;
76336;SDS011;65157;50.082;18.178;2023-01-10T01:30:54;13.90;;;6.90;;
76336;SDS011;65157;50.082;18.178;2023-01-10T01:33:20;12.40;;;7.60;;
76336;SDS011;65157;50.082;18.178;2023-01-10T01:35:47;13.90;;;7.60;;
76336;SDS011;65157;50.082;18.178;2023-01-10T01:38:15;15.40;;;8.10;;
76336;SDS011;65157;50.082;18.178;2023-01-10T01:40:42;16.60;;;8.90;;
76336;SDS011;65157;50.082;18.178;2023-01-10T01:43:18;15.40;;;8.30;;
76336;SDS011;65157;50.082;18.178;2023-01-10T01:45:49;15.70;;;8.30;;
76336;SDS011;65157;50.082;18.178;2023-01-10T01:48:25;15.00;;;7.90;;
76336;SDS011;65157;50.082;18.178;2023-01-10T01:53:33;14.00;;;7.60;;
76336;SDS011;65157;50.082;18.178;2023-01-10T01:56:06;19.00;;;8.90;;
76336;SDS011;65157;50.082;18.178;2023-01-10T01:58:47;16.60;;;8.40;;
76336;SDS011;65157;50.082;18.178;2023-01-10T02:01:17;15.90;;;8.60;;
76336;SDS011;65157;50.082;18.178;2023-01-10T02:03:45;15.20;;;9.00;;
76336;SDS011;65157;50.082;18.178;2023-01-10T02:06:15;14.80;;;8.50;;
76336;SDS011;65157;50.082;18.178;2023-01-10T02:08:45;15.10;;;8.00;;
76336;SDS011;65157;50.082;18.178;2023-01-10T02:11:18;14.50;;;8.20;;
76336;SDS011;65157;50.082;18.178;2023-01-10T02:13:45;13.70;;;8.10;;
76336;SDS011;65157;50.082;18.178;2023-01-10T02:16:14;14.80;;;7.20;;
76336;SDS011;65157;50.082;18.178;2023-01-10T02:18:40;15.90;;;8.10;;
76336;SDS011;65157;50.082;18.178;2023-01-10T02:21:21;15.70;;;8.20;;
76336;SDS011;65157;50.082;18.178;2023-01-10T02:27:04;16.20;;;8.90;;
76336;SDS011;65157;50.082;18.178;2023-01-10T02:29:55;15.60;;;8.40;;
76336;SDS011;65157;50.082;18.178;2023-01-10T02:35:12;17.20;;;8.40;;
76336;SDS011;65157;50.082;18.178;2023-01-10T02:43:44;15.60;;;8.40;;
76336;SDS011;65157;50.082;18.178;2023-01-10T02:46:17;14.50;;;7.50;;
76336;SDS011;65157;50.082;18.178;2023-01-10T02:48:50;16.20;;;7.90;;
76336;SDS011;65157;50.082;18.178;2023-01-10T02:51:23;10.10;;;5.50;;
76336;SDS011;65157;50.082;18.178;2023-01-10T02:54:12;11.00;;;6.70;;
76336;SDS011;65157;50.082;18.178;2023-01-10T02:59:58;16.00;;;8.30;;
76336;SDS011;65157;50.082;18.178;2023-01-10T03:10:46;14.10;;;7.90;;
76336;SDS011;65157;50.082;18.178;2023-01-10T03:13:28;13.20;;;7.50;;
76336;SDS011;65157;50.082;18.178;2023-01-10T03:15:56;13.90;;;7.90;;
76336;SDS011;65157;50.082;18.178;2023-01-10T03:18:30;14.80;;;7.80;;
76336;SDS011;65157;50.082;18.178;2023-01-10T03:21:02;15.50;;;7.50;;
76336;SDS011;65157;50.082;18.178;2023-01-10T03:23:32;14.60;;;7.30;;
76336;SDS011;65157;50.082;18.178;2023-01-10T03:26:00;13.50;;;7.00;;
76336;SDS011;65157;50.082;18.178;2023-01-10T03:28:40;11.50;;;5.80;;
76336;SDS011;65157;50.082;18.178;2023-01-10T03:31:18;10.30;;;6.30;;
76336;SDS011;65157;50.082;18.178;2023-01-10T03:33:53;13.30;;;7.00;;
76336;SDS011;65157;50.082;18.178;2023-01-10T03:36:27;11.80;;;5.80;;
76336;SDS011;65157;50.082;18.178;2023-01-10T03:44:57;6.90;;;4.30;;
76336;SDS011;65157;50.082;18.178;2023-01-10T03:50:19;10.70;;;5.10;;
76336;SDS011;65157;50.082;18.178;2023-01-10T03:52:47;9.50;;;5.00;;
76336;SDS011;65157;50.082;18.178;2023-01-10T03:55:17;12.10;;;6.20;;
76336;SDS011;65157;50.082;18.178;2023-01-10T03:57:47;13.60;;;6.30;;
76336;SDS011;65157;50.082;18.178;2023-01-10T04:00:14;12.30;;;5.70;;
76336;SDS011;65157;50.082;18.178;2023-01-10T04:02:41;14.50;;;7.10;;
76336;SDS011;65157;50.082;18.178;2023-01-10T04:05:09;12.00;;;6.90;;
76336;SDS011;65157;50.082;18.178;2023-01-10T04:07:36;13.80;;;7.70;;
76336;SDS011;65157;50.082;18.178;2023-01-10T04:10:03;17.50;;;7.90;;
76336;SDS011;65157;50.082;18.178;2023-01-10T04:12:30;15.40;;;8.30;;
76336;SDS011;65157;50.082;18.178;2023-01-10T04:14:57;15.60;;;8.50;;
76336;SDS011;65157;50.082;18.178;2023-01-10T04:17:23;16.90;;;8.40;;
76336;SDS011;65157;50.082;18.178;2023-01-10T04:19:50;15.50;;;7.60;;
76336;SDS011;65157;50.082;18.178;2023-01-10T04:22:17;16.50;;;8.90;;
76336;SDS011;65157;50.082;18.178;2023-01-10T04:24:43;18.50;;;9.50;;
76336;SDS011;65157;50.082;18.178;2023-01-10T04:27:12;16.30;;;8.70;;
76336;SDS011;65157;50.082;18.178;2023-01-10T04:29:39;17.70;;;9.20;;
76336;SDS011;65157;50.082;18.178;2023-01-10T04:32:05;20.50;;;9.80;;
76336;SDS011;65157;50.082;18.178;2023-01-10T04:34:32;21.70;;;10.80;;
76336;SDS011;65157;50.082;18.178;2023-01-10T04:36:58;23.60;;;12.00;;
76336;SDS011;65157;50.082;18.178;2023-01-10T04:39:25;24.60;;;13.00;;
76336;SDS011;65157;50.082;18.178;2023-01-10T04:41:52;25.70;;;12.40;;
76336;SDS011;65157;50.082;18.178;2023-01-10T04:44:18;21.80;;;10.60;;
76336;SDS011;65157;50.082;18.178;2023-01-10T04:46:45;20.70;;;10.40;;
76336;SDS011;65157;50.082;18.178;2023-01-10T04:49:11;21.40;;;11.50;;
76336;SDS011;65157;50.082;18.178;2023-01-10T04:51:38;21.10;;;11.10;;
76336;SDS011;65157;50.082;18.178;2023-01-10T04:54:05;21.90;;;11.20;;
76336;SDS011;65157;50.082;18.178;2023-01-10T04:56:31;26.90;;;12.20;;
76336;SDS011;65157;50.082;18.178;2023-01-10T05:01:25;22.20;;;11.50;;
76336;SDS011;65157;50.082;18.178;2023-01-10T05:03:53;21.20;;;11.40;;
76336;SDS011;65157;50.082;18.178;2023-01-10T05:06:21;20.80;;;10.70;;
76336;SDS011;65157;50.082;18.178;2023-01-10T05:08:49;21.40;;;10.60;;
76336;SDS011;65157;50.082;18.178;2023-01-10T05:11:15;19.80;;;11.90;;
76336;SDS011;65157;50.082;18.178;2023-01-10T05:13:42;20.50;;;10.70;;
76336;SDS011;65157;50.082;18.178;2023-01-10T05:16:09;22.10;;;11.30;;
76336;SDS011;65157;50.082;18.178;2023-01-10T05:18:35;23.00;;;11.70;;
76336;SDS011;65157;50.082;18.178;2023-01-10T05:21:03;21.30;;;12.40;;
76336;SDS011;65157;50.082;18.178;2023-01-10T05:23:32;26.80;;;12.60;;
76336;SDS011;65157;50.082;18.178;2023-01-10T05:26:08;27.60;;;13.30;;
76336;SDS011;65157;50.082;18.178;2023-01-10T05:28:40;26.50;;;13.00;;
76336;SDS011;65157;50.082;18.178;2023-01-10T05:31:07;25.30;;;11.80;;
76336;SDS011;65157;50.082;18.178;2023-01-10T05:33:35;21.50;;;11.20;;
76336;SDS011;65157;50.082;18.178;2023-01-10T05:36:03;21.90;;;10.70;;
76336;SDS011;65157;50.082;18.178;2023-01-10T05:38:31;22.60;;;12.00;;
76336;SDS011;65157;50.082;18.178;2023-01-10T05:40:59;23.80;;;12.90;;
76336;SDS011;65157;50.082;18.178;2023-01-10T05:43:26;24.80;;;13.10;;
76336;SDS011;65157;50.082;18.178;2023-01-10T05:45:54;23.70;;;12.80;;
76336;SDS011;65157;50.082;18.178;2023-01-10T05:48:21;29.90;;;13.80;;
76336;SDS011;65157;50.082;18.178;2023-01-10T05:50:48;24.80;;;12.70;;
76336;SDS011;65157;50.082;18.178;2023-01-10T05:53:16;25.20;;;11.90;;
76336;SDS011;65157;50.082;18.178;2023-01-10T05:55:43;22.70;;;11.00;;
76336;SDS011;65157;50.082;18.178;2023-01-10T05:58:17;26.90;;;13.10;;
76336;SDS011;65157;50.082;18.178;2023-01-10T06:00:43;25.30;;;13.20;;
76336;SDS011;65157;50.082;18.178;2023-01-10T06:03:10;24.60;;;11.90;;
76336;SDS011;65157;50.082;18.178;2023-01-10T06:05:36;24.40;;;12.30;;
76336;SDS011;65157;50.082;18.178;2023-01-10T06:08:03;24.50;;;11.80;;
76336;SDS011;65157;50.082;18.178;2023-01-10T06:10:30;24.00;;;11.50;;
76336;SDS011;65157;50.082;18.178;2023-01-10T06:12:56;22.20;;;10.70;;
76336;SDS011;65157;50.082;18.178;2023-01-10T06:15:23;20.80;;;10.20;;
76336;SDS011;65157;50.082;18.178;2023-01-10T06:17:50;20.10;;;10.00;;
76336;SDS011;65157;50.082;18.178;2023-01-10T06:20:16;19.40;;;10.70;;
76336;SDS011;65157;50.082;18.178;2023-01-10T06:22:43;20.50;;;10.00;;
76336;SDS011;65157;50.082;18.178;2023-01-10T06:25:10;20.50;;;10.40;;
76336;SDS011;65157;50.082;18.178;2023-01-10T06:27:41;21.10;;;11.30;;
76336;SDS011;65157;50.082;18.178;2023-01-10T06:30:09;21.10;;;10.40;;
76336;SDS011;65157;50.082;18.178;2023-01-10T06:32:37;18.10;;;9.80;;
76336;SDS011;65157;50.082;18.178;2023-01-10T06:35:04;19.90;;;10.30;;
76336;SDS011;65157;50.082;18.178;2023-01-10T06:37:31;22.00;;;11.40;;
76336;SDS011;65157;50.082;18.178;2023-01-10T06:39:58;19.30;;;11.00;;
76336;SDS011;65157;50.082;18.178;2023-01-10T06:42:24;22.20;;;11.50;;
76336;SDS011;65157;50.082;18.178;2023-01-10T06:44:51;20.60;;;11.20;;
76336;SDS011;65157;50.082;18.178;2023-01-10T06:47:18;21.10;;;11.10;;
76336;SDS011;65157;50.082;18.178;2023-01-10T06:49:44;23.40;;;11.60;;
76336;SDS011;65157;50.082;18.178;2023-01-10T06:52:11;25.20;;;11.90;;
76336;SDS011;65157;50.082;18.178;2023-01-10T06:54:37;25.20;;;12.80;;
76336;SDS011;65157;50.082;18.178;2023-01-10T06:57:04;25.10;;;12.90;;
76336;SDS011;65157;50.082;18.178;2023-01-10T06:59:31;26.70;;;14.30;;
76336;SDS011;65157;50.082;18.178;2023-01-10T07:01:57;25.40;;;14.00;;
76336;SDS011;65157;50.082;18.178;2023-01-10T07:04:24;24.10;;;12.90;;
76336;SDS011;65157;50.082;18.178;2023-01-10T07:06:52;27.10;;;12.60;;
76336;SDS011;65157;50.082;18.178;2023-01-10T07:09:19;31.20;;;15.10;;
76336;SDS011;65157;50.082;18.178;2023-01-10T07:11:45;32.30;;;16.10;;
76336;SDS011;65157;50.082;18.178;2023-01-10T07:14:12;24.30;;;12.50;;
76336;SDS011;65157;50.082;18.178;2023-01-10T07:16:39;19.20;;;10.00;;
76336;SDS011;65157;50.082;18.178;2023-01-10T07:19:05;19.40;;;9.60;;
76336;SDS011;65157;50.082;18.178;2023-01-10T07:21:32;14.00;;;7.60;;
76336;SDS011;65157;50.082;18.178;2023-01-10T07:23:58;14.80;;;8.00;;
76336;SDS011;65157;50.082;18.178;2023-01-10T07:26:25;11.90;;;6.60;;
76336;SDS011;65157;50.082;18.178;2023-01-10T07:28:51;13.80;;;6.90;;
76336;SDS011;65157;50.082;18.178;2023-01-10T07:31:18;15.10;;;8.10;;
76336;SDS011;65157;50.082;18.178;2023-01-10T07:33:48;12.60;;;7.00;;
76336;SDS011;65157;50.082;18.178;2023-01-10T07:36:17;13.50;;;6.60;;
76336;SDS011;65157;50.082;18.178;2023-01-10T07:41:11;12.60;;;6.20;;
76336;SDS011;65157;50.082;18.178;2023-01-10T07:43:37;11.40;;;6.50;;
76336;SDS011;65157;50.082;18.178;2023-01-10T07:46:05;10.10;;;5.50;;
76336;SDS011;65157;50.082;18.178;2023-01-10T07:48:34;11.60;;;6.20;;
76336;SDS011;65157;50.082;18.178;2023-01-10T07:51:04;12.80;;;6.10;;
76336;SDS011;65157;50.082;18.178;2023-01-10T07:53:31;12.10;;;5.90;;
76336;SDS011;65157;50.082;18.178;2023-01-10T07:56:01;11.90;;;6.80;;
76336;SDS011;65157;50.082;18.178;2023-01-10T07:58:29;11.60;;;6.50;;
76336;SDS011;65157;50.082;18.178;2023-01-10T08:00:59;13.80;;;5.80;;
76336;SDS011;65157;50.082;18.178;2023-01-10T08:03:27;10.90;;;6.40;;
76336;SDS011;65157;50.082;18.178;2023-01-10T08:05:59;13.60;;;6.80;;
76336;SDS011;65157;50.082;18.178;2023-01-10T08:08:26;15.50;;;7.50;;
76336;SDS011;65157;50.082;18.178;2023-01-10T08:10:54;18.80;;;9.10;;
76336;SDS011;65157;50.082;18.178;2023-01-10T08:13:21;21.30;;;10.40;;
76336;SDS011;65157;50.082;18.178;2023-01-10T08:15:47;14.90;;;7.30;;
76336;SDS011;65157;50.082;18.178;2023-01-10T08:18:18;11.40;;;6.80;;
76336;SDS011;65157;50.082;18.178;2023-01-10T08:20:49;7.80;;;3.70;;
76336;SDS011;65157;50.082;18.178;2023-01-10T08:23:19;13.60;;;7.10;;
76336;SDS011;65157;50.082;18.178;2023-01-10T08:28:13;7.80;;;3.60;;
76336;SDS011;65157;50.082;18.178;2023-01-10T08:30:40;11.30;;;6.50;;
76336;SDS011;65157;50.082;18.178;2023-01-10T08:33:07;9.00;;;4.80;;
76336;SDS011;65157;50.082;18.178;2023-01-10T08:35:38;11.80;;;6.70;;
76336;SDS011;65157;50.082;18.178;2023-01-10T08:38:05;8.10;;;4.80;;
76336;SDS011;65157;50.082;18.178;2023-01-10T08:40:32;8.60;;;5.20;;
76336;SDS011;65157;50.082;18.178;2023-01-10T08:43:00;7.90;;;4.80;;
76336;SDS011;65157;50.082;18.178;2023-01-10T08:45:29;7.20;;;4.30;;
76336;SDS011;65157;50.082;18.178;2023-01-10T08:47:55;6.80;;;4.10;;
76336;SDS011;65157;50.082;18.178;2023-01-10T08:50:22;9.40;;;5.50;;
76336;SDS011;65157;50.082;18.178;2023-01-10T08:52:50;10.60;;;5.90;;
76336;SDS011;65157;50.082;18.178;2023-01-10T08:55:17;9.70;;;5.60;;
76336;SDS011;65157;50.082;18.178;2023-01-10T08:57:44;8.40;;;4.30;;
76336;SDS011;65157;50.082;18.178;2023-01-10T09:00:11;7.10;;;4.60;;
76336;SDS011;65157;50.082;18.178;2023-01-10T09:02:39;6.30;;;3.70;;
76336;SDS011;65157;50.082;18.178;2023-01-10T09:05:06;7.50;;;4.50;;
76336;SDS011;65157;50.082;18.178;2023-01-10T09:07:32;8.50;;;5.00;;
76336;SDS011;65157;50.082;18.178;2023-01-10T09:09:59;8.60;;;5.30;;
76336;SDS011;65157;50.082;18.178;2023-01-10T09:12:26;6.00;;;4.10;;
76336;SDS011;65157;50.082;18.178;2023-01-10T09:15:12;7.40;;;4.30;;
76336;SDS011;65157;50.082;18.178;2023-01-10T09:17:39;7.90;;;4.70;;
76336;SDS011;65157;50.082;18.178;2023-01-10T09:20:06;8.20;;;4.80;;
76336;SDS011;65157;50.082;18.178;2023-01-10T09:22:35;8.60;;;4.60;;
76336;SDS011;65157;50.082;18.178;2023-01-10T09:25:03;8.80;;;4.60;;
76336;SDS011;65157;50.082;18.178;2023-01-10T09:27:30;7.90;;;4.40;;
76336;SDS011;65157;50.082;18.178;2023-01-10T09:29:57;8.90;;;4.80;;
76336;SDS011;65157;50.082;18.178;2023-01-10T09:32:24;6.50;;;4.10;;
76336;SDS011;65157;50.082;18.178;2023-01-10T09:34:51;10.20;;;4.80;;
76336;SDS011;65157;50.082;18.178;2023-01-10T09:37:18;8.20;;;4.60;;
76336;SDS011;65157;50.082;18.178;2023-01-10T09:39:45;2.90;;;1.60;;
76336;SDS011;65157;50.082;18.178;2023-01-10T09:45:12;9.10;;;5.30;;
76336;SDS011;65157;50.082;18.178;2023-01-10T09:47:58;9.10;;;4.60;;
76336;SDS011;65157;50.082;18.178;2023-01-10T09:53:02;7.10;;;4.10;;
76336;SDS011;65157;50.082;18.178;2023-01-10T09:55:36;7.50;;;4.40;;
76336;SDS011;65157;50.082;18.178;2023-01-10T09:58:14;7.90;;;4.10;;
76336;SDS011;65157;50.082;18.178;2023-01-10T10:00:50;10.10;;;4.80;;
76336;SDS011;65157;50.082;18.178;2023-01-10T10:05:55;7.20;;;4.20;;
76336;SDS011;65157;50.082;18.178;2023-01-10T10:08:22;6.50;;;4.50;;
76336;SDS011;65157;50.082;18.178;2023-01-10T10:11:06;8.80;;;4.80;;
76336;SDS011;65157;50.082;18.178;2023-01-10T10:30:06;10.40;;;5.60;;
76336;SDS011;65157;50.082;18.178;2023-01-10T10:35:34;10.20;;;5.30;;
76336;SDS011;65157;50.082;18.178;2023-01-10T10:38:08;12.10;;;5.90;;
76336;SDS011;65157;50.082;18.178;2023-01-10T10:40:46;12.10;;;6.50;;
76336;SDS011;65157;50.082;18.178;2023-01-10T10:43:17;11.00;;;6.00;;
76336;SDS011;65157;50.082;18.178;2023-01-10T10:45:51;11.10;;;6.20;;
76336;SDS011;65157;50.082;18.178;2023-01-10T10:48:23;11.50;;;6.70;;
76336;SDS011;65157;50.082;18.178;2023-01-10T10:53:48;11.00;;;6.10;;
76336;SDS011;65157;50.082;18.178;2023-01-10T10:56:16;13.60;;;6.80;;
76336;SDS011;65157;50.082;18.178;2023-01-10T10:58:47;11.60;;;6.40;;
76336;SDS011;65157;50.082;18.178;2023-01-10T11:01:18;9.30;;;4.80;;
76336;SDS011;65157;50.082;18.178;2023-01-10T11:06:19;9.00;;;5.80;;
76336;SDS011;65157;50.082;18.178;2023-01-10T11:08:47;10.70;;;6.10;;
76336;SDS011;65157;50.082;18.178;2023-01-10T11:11:23;10.50;;;6.40;;
76336;SDS011;65157;50.082;18.178;2023-01-10T11:13:54;8.70;;;5.60;;
76336;SDS011;65157;50.082;18.178;2023-01-10T11:16:24;9.90;;;5.60;;
76336;SDS011;65157;50.082;18.178;2023-01-10T11:22:22;10.10;;;6.70;;
76336;SDS011;65157;50.082;18.178;2023-01-10T11:24:47;9.40;;;5.40;;
76336;SDS011;65157;50.082;18.178;2023-01-10T11:27:19;12.10;;;7.10;;
76336;SDS011;65157;50.082;18.178;2023-01-10T11:29:50;11.20;;;7.40;;
76336;SDS011;65157;50.082;18.178;2023-01-10T11:32:29;9.30;;;6.20;;
76336;SDS011;65157;50.082;18.178;2023-01-10T11:34:59;11.00;;;6.40;;
76336;SDS011;65157;50.082;18.178;2023-01-10T11:37:30;9.00;;;6.00;;
76336;SDS011;65157;50.082;18.178;2023-01-10T11:40:18;10.50;;;6.70;;
76336;SDS011;65157;50.082;18.178;2023-01-10T11:42:49;10.60;;;5.90;;
76336;SDS011;65157;50.082;18.178;2023-01-10T11:45:20;10.60;;;6.40;;
76336;SDS011;65157;50.082;18.178;2023-01-10T11:48:16;10.30;;;5.80;;
76336;SDS011;65157;50.082;18.178;2023-01-10T11:50:48;11.30;;;7.20;;
76336;SDS011;65157;50.082;18.178;2023-01-10T11:53:29;10.50;;;6.50;;
76336;SDS011;65157;50.082;18.178;2023-01-10T11:55:57;11.50;;;5.80;;
76336;SDS011;65157;50.082;18.178;2023-01-10T11:58:24;11.80;;;6.40;;
76336;SDS011;65157;50.082;18.178;2023-01-10T12:00:58;10.40;;;5.60;;
76336;SDS011;65157;50.082;18.178;2023-01-10T12:05:56;10.80;;;5.90;;
76336;SDS011;65157;50.082;18.178;2023-01-10T12:08:29;11.70;;;5.90;;
76336;SDS011;65157;50.082;18.178;2023-01-10T12:10:59;9.60;;;5.50;;
76336;SDS011;65157;50.082;18.178;2023-01-10T12:13:28;7.80;;;5.30;;
76336;SDS011;65157;50.082;18.178;2023-01-10T12:18:48;7.60;;;4.70;;
76336;SDS011;65157;50.082;18.178;2023-01-10T12:24:01;8.60;;;4.20;;
76336;SDS011;65157;50.082;18.178;2023-01-10T12:26:31;9.00;;;5.00;;
76336;SDS011;65157;50.082;18.178;2023-01-10T12:29:05;9.60;;;4.90;;
76336;SDS011;65157;50.082;18.178;2023-01-10T12:31:38;8.90;;;4.70;;
76336;SDS011;65157;50.082;18.178;2023-01-10T12:34:15;10.30;;;5.40;;
76336;SDS011;65157;50.082;18.178;2023-01-10T12:39:22;8.00;;;4.50;;
76336;SDS011;65157;50.082;18.178;2023-01-10T12:44:59;12.50;;;6.30;;
76336;SDS011;65157;50.082;18.178;2023-01-10T12:50:46;12.20;;;5.40;;
76336;SDS011;65157;50.082;18.178;2023-01-10T12:53:26;7.90;;;5.90;;
76336;SDS011;65157;50.082;18.178;2023-01-10T12:55:57;14.70;;;6.70;;
76336;SDS011;65157;50.082;18.178;2023-01-10T13:01:05;10.60;;;5.40;;
76336;SDS011;65157;50.082;18.178;2023-01-10T13:03:34;10.60;;;5.50;;
76336;SDS011;65157;50.082;18.178;2023-01-10T13:06:02;14.80;;;6.40;;
76336;SDS011;65157;50.082;18.178;2023-01-10T13:08:31;9.70;;;5.70;;
76336;SDS011;65157;50.082;18.178;2023-01-10T13:10:59;9.40;;;5.40;;
76336;SDS011;65157;50.082;18.178;2023-01-10T13:13:44;9.60;;;5.30;;
76336;SDS011;65157;50.082;18.178;2023-01-10T13:19:39;16.70;;;6.20;;
76336;SDS011;65157;50.082;18.178;2023-01-10T13:21:45;13.10;;;5.40;;
76336;SDS011;65157;50.082;18.178;2023-01-10T13:24:19;12.20;;;5.90;;
76336;SDS011;65157;50.082;18.178;2023-01-10T13:27:14;12.00;;;6.00;;
76336;SDS011;65157;50.082;18.178;2023-01-10T13:29:44;10.30;;;4.90;;
76336;SDS011;65157;50.082;18.178;2023-01-10T13:34:46;13.30;;;6.00;;
76336;SDS011;65157;50.082;18.178;2023-01-10T13:37:20;11.80;;;5.30;;
76336;SDS011;65157;50.082;18.178;2023-01-10T13:39:54;9.80;;;5.00;;
76336;SDS011;65157;50.082;18.178;2023-01-10T13:42:33;9.90;;;4.30;;
76336;SDS011;65157;50.082;18.178;2023-01-10T13:45:24;8.20;;;4.10;;
76336;SDS011;65157;50.082;18.178;2023-01-10T14:03:52;7.50;;;4.00;;
76336;SDS011;65157;50.082;18.178;2023-01-10T14:08:57;10.40;;;4.80;;
76336;SDS011;65157;50.082;18.178;2023-01-10T14:11:48;4.70;;;2.40;;
76336;SDS011;65157;50.082;18.178;2023-01-10T14:17:19;9.20;;;3.70;;
76336;SDS011;65157;50.082;18.178;2023-01-10T14:20:35;11.10;;;4.90;;
76336;SDS011;65157;50.082;18.178;2023-01-10T14:22:44;7.80;;;4.50;;
76336;SDS011;65157;50.082;18.178;2023-01-10T14:25:38;7.80;;;4.20;;
76336;SDS011;65157;50.082;18.178;2023-01-10T14:28:13;12.30;;;5.60;;
76336;SDS011;65157;50.082;18.178;2023-01-10T14:30:58;11.20;;;5.30;;
76336;SDS011;65157;50.082;18.178;2023-01-10T14:33:32;12.30;;;5.00;;
76336;SDS011;65157;50.082;18.178;2023-01-10T14:36:02;11.00;;;5.30;;
76336;SDS011;65157;50.082;18.178;2023-01-10T14:38:34;8.80;;;4.70;;
76336;SDS011;65157;50.082;18.178;2023-01-10T14:44:00;10.70;;;5.20;;
76336;SDS011;65157;50.082;18.178;2023-01-10T14:46:52;13.70;;;6.10;;
76336;SDS011;65157;50.082;18.178;2023-01-10T14:49:25;7.10;;;4.30;;
76336;SDS011;65157;50.082;18.178;2023-01-10T14:52:23;10.10;;;5.30;;
76336;SDS011;65157;50.082;18.178;2023-01-10T14:55:00;11.60;;;6.20;;
76336;SDS011;65157;50.082;18.178;2023-01-10T14:57:31;8.70;;;4.60;;
76336;SDS011;65157;50.082;18.178;2023-01-10T15:00:07;12.30;;;6.40;;
76336;SDS011;65157;50.082;18.178;2023-01-10T15:02:45;10.60;;;5.10;;
76336;SDS011;65157;50.082;18.178;2023-01-10T15:05:17;10.00;;;5.00;;
76336;SDS011;65157;50.082;18.178;2023-01-10T15:07:49;11.10;;;5.60;;
76336;SDS011;65157;50.082;18.178;2023-01-10T15:10:22;10.10;;;5.80;;
76336;SDS011;65157;50.082;18.178;2023-01-10T15:12:53;11.10;;;5.40;;
76336;SDS011;65157;50.082;18.178;2023-01-10T15:15:30;11.10;;;5.30;;
76336;SDS011;65157;50.082;18.178;2023-01-10T15:17:59;10.60;;;5.40;;
76336;SDS011;65157;50.082;18.178;2023-01-10T15:20:30;13.20;;;5.00;;
76336;SDS011;65157;50.082;18.178;2023-01-10T15:23:00;9.60;;;4.30;;
76336;SDS011;65157;50.082;18.178;2023-01-10T15:25:28;9.90;;;5.30;;
76336;SDS011;65157;50.082;18.178;2023-01-10T15:28:16;9.80;;;5.60;;
76336;SDS011;65157;50.082;18.178;2023-01-10T15:30:44;11.20;;;5.20;;
76336;SDS011;65157;50.082;18.178;2023-01-10T15:35:41;8.70;;;4.90;;
76336;SDS011;65157;50.082;18.178;2023-01-10T15:38:12;9.50;;;4.50;;
76336;SDS011;65157;50.082;18.178;2023-01-10T15:40:41;9.30;;;5.10;;
76336;SDS011;65157;50.082;18.178;2023-01-10T15:45:56;9.20;;;4.40;;
76336;SDS011;65157;50.082;18.178;2023-01-10T15:48:28;8.90;;;4.50;;
76336;SDS011;65157;50.082;18.178;2023-01-10T15:50:56;10.80;;;5.30;;
76336;SDS011;65157;50.082;18.178;2023-01-10T15:56:19;9.40;;;5.10;;
76336;SDS011;65157;50.082;18.178;2023-01-10T16:01:19;10.30;;;5.80;;
76336;SDS011;65157;50.082;18.178;2023-01-10T16:03:47;9.40;;;5.10;;
76336;SDS011;65157;50.082;18.178;2023-01-10T16:06:22;11.60;;;5.00;;
76336;SDS011;65157;50.082;18.178;2023-01-10T16:14:34;10.40;;;4.90;;
76336;SDS011;65157;50.082;18.178;2023-01-10T16:17:01;9.40;;;6.10;;
76336;SDS011;65157;50.082;18.178;2023-01-10T16:19:29;12.50;;;6.90;;
76336;SDS011;65157;50.082;18.178;2023-01-10T16:21:56;11.30;;;6.40;;
76336;SDS011;65157;50.082;18.178;2023-01-10T16:24:29;11.70;;;7.00;;
76336;SDS011;65157;50.082;18.178;2023-01-10T16:26:57;24.30;;;10.70;;
76336;SDS011;65157;50.082;18.178;2023-01-10T16:29:28;24.10;;;11.20;;
76336;SDS011;65157;50.082;18.178;2023-01-10T16:31:54;11.80;;;4.50;;
76336;SDS011;65157;50.082;18.178;2023-01-10T16:34:21;25.40;;;8.70;;
76336;SDS011;65157;50.082;18.178;2023-01-10T16:36:51;20.80;;;8.20;;
76336;SDS011;65157;50.082;18.178;2023-01-10T16:39:19;22.70;;;8.90;;
76336;SDS011;65157;50.082;18.178;2023-01-10T16:41:47;21.10;;;8.90;;
76336;SDS011;65157;50.082;18.178;2023-01-10T16:44:32;32.10;;;12.70;;
76336;SDS011;65157;50.082;18.178;2023-01-10T16:47:00;23.40;;;10.40;;
76336;SDS011;65157;50.082;18.178;2023-01-10T16:49:27;31.10;;;11.70;;
76336;SDS011;65157;50.082;18.178;2023-01-10T16:51:53;27.30;;;10.10;;
76336;SDS011;65157;50.082;18.178;2023-01-10T16:54:22;27.20;;;12.50;;
76336;SDS011;65157;50.082;18.178;2023-01-10T16:56:51;24.10;;;10.00;;
76336;SDS011;65157;50.082;18.178;2023-01-10T16:59:17;15.20;;;6.90;;
76336;SDS011;65157;50.082;18.178;2023-01-10T17:01:47;14.90;;;6.90;;
76336;SDS011;65157;50.082;18.178;2023-01-10T17:04:26;13.00;;;6.30;;